createdAt,value
2023-02-27T00:00:01.363Z,5.50
2023-02-27T00:02:29.477Z,2.30
2023-02-27T00:04:58.213Z,6.90
2023-02-27T00:07:26.299Z,8.10
2023-02-27T00:09:54.256Z,6.70
2023-02-27T00:12:22.394Z,4.90
2023-02-27T00:14:51.599Z,5.40
2023-02-27T00:17:19.870Z,7.30
2023-02-27T00:19:47.889Z,6.10
2023-02-27T00:22:15.910Z,7.20
2023-02-27T00:24:43.907Z,4.10
2023-02-27T00:27:11.838Z,6.20
2023-02-27T00:29:39.863Z,4.80
2023-02-27T00:32:07.925Z,3.40
2023-02-27T00:34:35.936Z,5.40
2023-02-27T00:37:03.868Z,3.80
2023-02-27T00:39:31.927Z,2.60
2023-02-27T00:41:59.895Z,2.30
2023-02-27T00:44:27.975Z,6.20
2023-02-27T00:46:56.006Z,5.60
2023-02-27T00:49:25.517Z,2.40
2023-02-27T00:51:53.631Z,3.50
2023-02-27T00:54:21.520Z,5.40
2023-02-27T00:56:49.536Z,3.40
2023-02-27T00:59:17.572Z,5.40
2023-02-27T01:01:46.682Z,4.70
2023-02-27T01:04:14.751Z,4.20
2023-02-27T01:06:42.687Z,3.70
2023-02-27T01:09:10.753Z,3.00
2023-02-27T01:11:38.835Z,15.00
2023-02-27T01:14:06.736Z,6.50
2023-02-27T01:16:34.735Z,7.20
2023-02-27T01:19:03.077Z,6.70
2023-02-27T01:21:30.988Z,8.90
2023-02-27T01:23:58.875Z,2.30
2023-02-27T01:26:26.884Z,4.10
2023-02-27T01:28:54.791Z,7.00
2023-02-27T01:31:22.736Z,9.70
2023-02-27T01:33:50.740Z,8.20
2023-02-27T01:36:18.742Z,9.90
2023-02-27T01:38:46.656Z,6.20
2023-02-27T01:41:14.597Z,7.60
2023-02-27T01:44:06.481Z,5.80
2023-02-27T01:46:34.512Z,6.70
2023-02-27T01:49:24.814Z,6.30
2023-02-27T01:52:03.356Z,7.50
2023-02-27T01:54:32.752Z,8.00
2023-02-27T01:57:06.910Z,7.00
2023-02-27T01:59:35.651Z,6.90
2023-02-27T02:02:05.300Z,6.40
2023-02-27T02:04:36.359Z,5.30
2023-02-27T02:07:12.107Z,7.00
2023-02-27T02:09:42.387Z,6.90
2023-02-27T02:12:12.045Z,5.50
2023-02-27T02:14:40.117Z,5.60
2023-02-27T02:17:31.282Z,8.60
2023-02-27T02:20:28.718Z,4.50
2023-02-27T02:23:35.930Z,4.00
2023-02-27T02:26:14.076Z,3.60
2023-02-27T02:28:57.489Z,2.10
2023-02-27T02:31:53.947Z,3.80
2023-02-27T02:34:45.092Z,1.50
2023-02-27T02:37:48.671Z,3.90
2023-02-27T02:40:37.652Z,4.70
2023-02-27T02:43:27.693Z,4.10
2023-02-27T02:46:18.240Z,4.20
2023-02-27T02:48:51.739Z,7.70
2023-02-27T02:51:26.533Z,8.10
2023-02-27T02:54:08.528Z,7.40
2023-02-27T02:56:41.117Z,6.50
2023-02-27T02:59:18.062Z,8.30
2023-02-27T03:02:09.943Z,8.00
2023-02-27T03:04:48.617Z,7.50
2023-02-27T03:07:30.752Z,5.90
2023-02-27T03:10:20.146Z,6.20
2023-02-27T03:12:55.073Z,6.30
2023-02-27T03:15:25.925Z,7.10
2023-02-27T03:17:59.667Z,5.50
2023-02-27T03:20:30.294Z,7.10
2023-02-27T03:23:01.850Z,7.30
2023-02-27T03:25:29.859Z,6.40
2023-02-27T03:28:02.993Z,7.40
2023-02-27T03:30:37.047Z,6.80
2023-02-27T03:33:15.427Z,10.10
2023-02-27T03:36:12.317Z,6.00
2023-02-27T03:38:53.750Z,6.00
2023-02-27T03:41:29.237Z,6.90
2023-02-27T03:44:11.429Z,6.50
2023-02-27T03:46:39.646Z,8.30
2023-02-27T03:49:07.761Z,9.80
2023-02-27T03:51:35.745Z,7.50
2023-02-27T03:54:16.384Z,7.30
2023-02-27T03:56:50.231Z,7.40
2023-02-27T03:59:18.196Z,9.40
2023-02-27T04:01:49.491Z,5.70
2023-02-27T04:04:17.829Z,9.60
2023-02-27T04:07:27.884Z,8.40
2023-02-27T04:10:05.355Z,7.00
2023-02-27T04:12:55.236Z,7.70
2023-02-27T04:15:38.361Z,7.50
2023-02-27T04:18:17.769Z,8.00
2023-02-27T04:21:10.950Z,6.70
2023-02-27T04:23:48.787Z,7.20
2023-02-27T04:26:36.951Z,7.00
2023-02-27T04:29:11.864Z,8.80
2023-02-27T04:31:47.031Z,9.40
2023-02-27T04:34:26.385Z,9.60
2023-02-27T04:37:04.704Z,8.90
2023-02-27T04:39:37.191Z,6.80
2023-02-27T04:42:07.041Z,8.60
2023-02-27T04:44:35.942Z,6.00
2023-02-27T04:47:05.020Z,9.30
2023-02-27T04:49:38.270Z,9.50
2023-02-27T04:52:10.607Z,7.40
2023-02-27T04:54:55.278Z,7.60
2023-02-27T04:57:27.836Z,7.60
2023-02-27T04:59:56.024Z,7.70
2023-02-27T05:02:29.434Z,10.20
2023-02-27T05:04:59.578Z,9.50
2023-02-27T05:07:31.677Z,8.40
2023-02-27T05:10:00.646Z,8.70
2023-02-27T05:12:53.292Z,8.60
2023-02-27T05:15:28.075Z,8.90
2023-02-27T05:17:56.014Z,9.20
2023-02-27T05:20:24.849Z,9.60
2023-02-27T05:23:01.142Z,4.70
2023-02-27T05:25:31.167Z,6.10
2023-02-27T05:28:26.069Z,4.10
2023-02-27T05:31:12.949Z,5.10
2023-02-27T05:33:47.912Z,6.90
2023-02-27T05:36:23.384Z,7.80
2023-02-27T05:38:59.768Z,7.30
2023-02-27T05:41:30.494Z,6.60
2023-02-27T05:44:10.627Z,8.50
2023-02-27T05:46:41.947Z,4.50
2023-02-27T05:49:23.320Z,6.30
2023-02-27T05:51:51.726Z,9.80
2023-02-27T05:54:27.126Z,5.00
2023-02-27T05:56:55.413Z,8.10
2023-02-27T05:59:39.371Z,4.90
2023-02-27T06:02:07.410Z,7.70
2023-02-27T06:04:38.861Z,8.00
2023-02-27T06:07:08.467Z,6.80
2023-02-27T06:09:36.959Z,6.50
2023-02-27T06:12:05.139Z,6.80
2023-02-27T06:14:33.115Z,7.70
2023-02-27T06:17:01.117Z,6.80
2023-02-27T06:19:29.446Z,5.70
2023-02-27T06:21:57.863Z,4.00
2023-02-27T06:24:26.893Z,5.00
2023-02-27T06:26:54.880Z,6.60
2023-02-27T06:29:22.930Z,4.70
2023-02-27T06:31:51.377Z,5.60
2023-02-27T06:34:19.304Z,6.40
2023-02-27T06:36:49.394Z,6.20
2023-02-27T06:39:17.826Z,5.70
2023-02-27T06:41:46.146Z,7.20
2023-02-27T06:44:14.189Z,7.70
2023-02-27T06:46:42.586Z,4.90
2023-02-27T06:49:10.769Z,6.10
2023-02-27T06:51:39.455Z,2.80
2023-02-27T06:54:08.310Z,9.00
2023-02-27T06:56:36.423Z,3.30
2023-02-27T06:59:04.494Z,3.80
2023-02-27T07:01:32.582Z,4.50
2023-02-27T07:04:01.513Z,2.50
2023-02-27T07:07:32.900Z,7.40
2023-02-27T07:09:17.560Z,5.80
2023-02-27T07:11:46.055Z,3.00
2023-02-27T07:14:16.721Z,1.40
2023-02-27T07:16:45.371Z,4.40
2023-02-27T07:19:13.619Z,4.90
2023-02-27T07:21:41.997Z,5.30
2023-02-27T07:24:10.522Z,7.80
2023-02-27T07:26:38.508Z,5.40
2023-02-27T07:29:06.664Z,7.70
2023-02-27T07:31:34.887Z,4.10
2023-02-27T07:34:02.895Z,4.50
2023-02-27T07:36:32.089Z,4.80
2023-02-27T07:39:00.165Z,5.30
2023-02-27T07:41:30.924Z,7.20
2023-02-27T07:44:01.190Z,6.80
2023-02-27T07:46:29.701Z,6.70
2023-02-27T07:48:58.129Z,3.30
2023-02-27T07:51:26.168Z,10.20
2023-02-27T07:53:54.042Z,8.50
2023-02-27T07:56:22.318Z,8.30
2023-02-27T07:58:50.278Z,5.60
2023-02-27T08:01:18.541Z,3.90
2023-02-27T08:03:46.552Z,4.20
2023-02-27T08:06:14.538Z,5.50
2023-02-27T08:08:42.656Z,7.60
2023-02-27T08:11:11.105Z,2.30
2023-02-27T08:16:27.871Z,3.80
2023-02-27T08:18:59.706Z,6.60
2023-02-27T08:21:29.353Z,6.80
2023-02-27T08:23:57.830Z,4.70
2023-02-27T08:26:26.376Z,6.20
2023-02-27T08:28:55.095Z,4.60
2023-02-27T08:31:23.829Z,5.10
2023-02-27T08:34:01.122Z,5.00
2023-02-27T08:36:36.120Z,5.90
2023-02-27T08:39:04.518Z,3.00
2023-02-27T08:41:32.686Z,3.40
2023-02-27T08:44:01.023Z,4.80
2023-02-27T08:46:29.569Z,9.30
2023-02-27T08:48:58.168Z,6.00
2023-02-27T08:51:26.764Z,5.70
2023-02-27T08:53:59.200Z,2.30
2023-02-27T08:56:27.988Z,5.10
2023-02-27T08:58:56.398Z,7.00
2023-02-27T09:01:28.886Z,5.10
2023-02-27T09:03:57.822Z,8.00
2023-02-27T09:06:26.527Z,6.80
2023-02-27T09:08:55.270Z,6.90
2023-02-27T09:11:23.401Z,5.70
2023-02-27T09:13:51.873Z,5.60
2023-02-27T09:16:21.033Z,6.20
2023-02-27T09:18:49.479Z,3.90
2023-02-27T09:21:17.681Z,7.50
2023-02-27T09:23:45.787Z,6.50
2023-02-27T09:26:14.157Z,6.60
2023-02-27T09:28:42.444Z,5.90
2023-02-27T09:31:11.138Z,6.40
2023-02-27T09:33:39.370Z,7.30
2023-02-27T09:36:07.942Z,5.10
2023-02-27T09:38:36.246Z,5.60
2023-02-27T09:41:05.327Z,4.80
2023-02-27T09:43:49.942Z,5.90
2023-02-27T09:46:19.514Z,5.40
2023-02-27T09:48:50.838Z,5.30
2023-02-27T09:51:18.949Z,4.90
2023-02-27T09:53:49.252Z,7.00
2023-02-27T09:56:27.807Z,5.00
2023-02-27T09:59:18.329Z,5.40
2023-02-27T10:01:50.348Z,5.20
2023-02-27T10:04:31.828Z,8.80
2023-02-27T10:07:17.213Z,4.50
2023-02-27T10:10:27.652Z,7.20
2023-02-27T10:13:33.902Z,8.40
2023-02-27T10:16:02.080Z,5.60
2023-02-27T10:18:35.860Z,4.60
2023-02-27T10:21:08.317Z,4.00
2023-02-27T10:23:39.517Z,6.60
2023-02-27T10:26:08.408Z,4.10
2023-02-27T10:28:36.451Z,2.10
2023-02-27T10:31:04.583Z,4.90
2023-02-27T10:33:37.818Z,6.00
2023-02-27T10:36:18.073Z,3.10
2023-02-27T10:38:59.848Z,2.90
2023-02-27T10:41:28.158Z,6.40
2023-02-27T10:43:58.330Z,4.60
2023-02-27T10:46:28.802Z,4.10
2023-02-27T10:49:00.648Z,5.30
2023-02-27T10:51:31.586Z,3.70
2023-02-27T10:54:25.137Z,2.00
2023-02-27T10:57:00.901Z,1.80
2023-02-27T10:59:36.631Z,5.30
2023-02-27T11:02:07.457Z,9.10
2023-02-27T11:04:38.266Z,6.70
2023-02-27T11:07:09.234Z,2.80
2023-02-27T11:09:37.503Z,5.60
2023-02-27T11:12:26.359Z,4.80
2023-02-27T11:15:02.228Z,2.80
2023-02-27T11:17:38.418Z,3.20
2023-02-27T11:20:06.833Z,4.50
2023-02-27T11:22:34.784Z,4.50
2023-02-27T11:25:23.791Z,4.30
2023-02-27T11:27:52.497Z,1.30
2023-02-27T11:30:29.520Z,1.50
2023-02-27T11:32:58.742Z,3.60
2023-02-27T11:35:37.341Z,4.00
2023-02-27T11:38:07.291Z,2.70
2023-02-27T11:40:39.606Z,5.10
2023-02-27T11:43:16.244Z,5.50
2023-02-27T11:46:04.640Z,7.60
2023-02-27T11:48:47.174Z,6.90
2023-02-27T11:51:33.025Z,10.40
2023-02-27T11:54:30.156Z,4.70
2023-02-27T11:57:08.034Z,7.50
2023-02-27T11:59:47.303Z,7.10
2023-02-27T12:02:18.081Z,7.50
2023-02-27T12:04:51.017Z,3.50
2023-02-27T12:07:28.068Z,4.20
2023-02-27T12:10:00.592Z,4.10
2023-02-27T12:12:29.932Z,3.10
2023-02-27T12:15:11.005Z,6.30
2023-02-27T12:18:11.815Z,2.50
2023-02-27T12:21:03.890Z,3.30
2023-02-27T12:23:54.483Z,2.30
2023-02-27T12:26:24.087Z,3.10
2023-02-27T12:28:54.764Z,4.10
2023-02-27T12:31:36.509Z,2.60
2023-02-27T12:34:32.183Z,6.20
2023-02-27T12:37:05.879Z,2.80
2023-02-27T12:39:35.119Z,3.00
2023-02-27T12:42:27.508Z,2.80
2023-02-27T12:45:16.575Z,1.90
2023-02-27T12:48:13.033Z,2.40
2023-02-27T12:51:01.708Z,2.60
2023-02-27T12:53:35.942Z,0.90
2023-02-27T12:56:14.346Z,1.60
2023-02-27T12:58:57.767Z,2.30
2023-02-27T13:01:43.354Z,2.70
2023-02-27T13:04:40.636Z,2.90
2023-02-27T13:07:37.467Z,2.40
2023-02-27T13:10:19.475Z,2.30
2023-02-27T13:13:00.856Z,2.10
2023-02-27T13:15:33.091Z,2.60
2023-02-27T13:18:30.732Z,4.10
2023-02-27T13:21:23.406Z,1.50
2023-02-27T13:23:58.464Z,2.70
2023-02-27T13:26:47.913Z,4.20
2023-02-27T13:29:17.153Z,2.20
2023-02-27T13:31:53.630Z,2.80
2023-02-27T13:34:34.880Z,2.30
2023-02-27T13:37:04.573Z,2.80
2023-02-27T13:39:48.965Z,2.50
2023-02-27T13:42:25.981Z,1.80
2023-02-27T13:44:56.643Z,2.10
2023-02-27T13:47:30.874Z,4.50
2023-02-27T13:50:01.997Z,2.90
2023-02-27T13:52:30.088Z,2.20
2023-02-27T13:55:06.266Z,2.30
2023-02-27T13:57:39.667Z,2.20
2023-02-27T14:00:18.615Z,2.30
2023-02-27T14:03:21.124Z,2.00
2023-02-27T14:05:49.097Z,3.10
2023-02-27T14:08:55.713Z,6.80
2023-02-27T14:11:28.712Z,1.50
2023-02-27T14:13:57.825Z,4.80
2023-02-27T14:16:38.314Z,3.80
2023-02-27T14:19:15.545Z,7.30
2023-02-27T14:22:22.554Z,3.70
2023-02-27T14:25:03.603Z,8.20
2023-02-27T14:27:55.835Z,3.70
2023-02-27T14:30:30.014Z,3.30
2023-02-27T14:33:08.159Z,15.20
2023-02-27T14:35:36.345Z,4.00
2023-02-27T14:38:10.068Z,8.00
2023-02-27T14:41:13.641Z,22.10
2023-02-27T14:43:55.633Z,13.80
2023-02-27T14:46:32.048Z,4.00
2023-02-27T14:49:22.608Z,3.10
2023-02-27T14:51:50.908Z,1.40
2023-02-27T14:54:26.385Z,2.40
2023-02-27T14:56:56.144Z,5.90
2023-02-27T14:59:28.856Z,6.40
2023-02-27T15:02:04.498Z,3.40
2023-02-27T15:04:33.083Z,5.30
2023-02-27T15:07:01.400Z,5.20
2023-02-27T15:09:38.257Z,11.60
2023-02-27T15:12:06.795Z,7.20
2023-02-27T15:14:36.995Z,9.10
2023-02-27T15:17:19.727Z,9.50
2023-02-27T15:19:52.777Z,9.20
2023-02-27T15:22:37.946Z,6.70
2023-02-27T15:25:08.377Z,4.30
2023-02-27T15:27:38.472Z,2.80
2023-02-27T15:30:08.862Z,6.20
2023-02-27T15:32:40.006Z,6.20
2023-02-27T15:35:17.828Z,5.20
2023-02-27T15:37:49.064Z,5.90
2023-02-27T15:40:23.444Z,4.90
2023-02-27T15:42:52.331Z,6.10
2023-02-27T15:45:22.469Z,7.30
2023-02-27T15:47:50.927Z,8.10
2023-02-27T15:50:19.056Z,6.20
2023-02-27T15:52:51.911Z,5.70
2023-02-27T15:55:25.488Z,5.40
2023-02-27T15:58:02.811Z,5.00
2023-02-27T16:00:31.864Z,7.30
2023-02-27T16:03:00.030Z,5.50
2023-02-27T16:05:32.339Z,8.50
2023-02-27T16:08:01.991Z,4.90
2023-02-27T16:10:35.777Z,5.90
2023-02-27T16:13:20.880Z,16.00
2023-02-27T16:16:05.698Z,15.90
2023-02-27T16:18:45.232Z,17.80
2023-02-27T16:21:21.204Z,18.80
2023-02-27T16:23:50.029Z,12.10
2023-02-27T16:26:32.026Z,16.40
2023-02-27T16:29:02.979Z,11.90
2023-02-27T16:31:35.767Z,9.30
2023-02-27T16:34:14.295Z,12.70
2023-02-27T16:36:43.704Z,11.50
2023-02-27T16:39:14.795Z,8.70
2023-02-27T16:41:43.464Z,10.50
2023-02-27T16:44:12.124Z,2.50
2023-02-27T16:46:40.213Z,7.50
2023-02-27T16:49:20.173Z,11.90
2023-02-27T16:51:48.991Z,10.40
2023-02-27T16:54:17.662Z,8.70
2023-02-27T16:56:46.716Z,9.70
2023-02-27T16:59:34.815Z,8.70
2023-02-27T17:02:05.432Z,14.30
2023-02-27T17:04:33.782Z,20.30
2023-02-27T17:07:06.407Z,16.90
2023-02-27T17:09:35.318Z,20.40
2023-02-27T17:12:03.654Z,13.70
2023-02-27T17:14:31.916Z,9.10
2023-02-27T17:17:00.017Z,7.70
2023-02-27T17:19:28.245Z,11.30
2023-02-27T17:21:56.429Z,17.80
2023-02-27T17:24:24.738Z,10.70
2023-02-27T17:26:52.964Z,9.70
2023-02-27T17:29:20.964Z,13.30
2023-02-27T17:31:49.066Z,15.30
2023-02-27T17:34:17.215Z,12.10
2023-02-27T17:36:45.505Z,7.80
2023-02-27T17:39:16.464Z,10.50
2023-02-27T17:41:44.513Z,6.10
2023-02-27T17:44:12.687Z,11.40
2023-02-27T17:46:41.100Z,6.70
2023-02-27T17:49:10.183Z,12.40
2023-02-27T17:51:38.259Z,13.80
2023-02-27T17:54:06.953Z,18.70
2023-02-27T17:56:36.802Z,23.50
2023-02-27T17:59:05.332Z,26.40
2023-02-27T18:01:33.487Z,27.70
2023-02-27T18:04:01.670Z,16.60
2023-02-27T18:06:30.117Z,15.00
2023-02-27T18:08:58.627Z,18.50
2023-02-27T18:11:26.752Z,20.00
2023-02-27T18:13:54.974Z,32.80
2023-02-27T18:16:23.088Z,25.10
2023-02-27T18:18:51.149Z,16.30
2023-02-27T18:21:20.401Z,23.80
2023-02-27T18:23:49.549Z,18.60
2023-02-27T18:26:30.804Z,14.50
2023-02-27T18:29:03.087Z,13.60
2023-02-27T18:31:34.257Z,9.10
2023-02-27T18:34:02.548Z,10.60
2023-02-27T18:36:31.282Z,11.00
2023-02-27T18:38:59.917Z,7.10
2023-02-27T18:41:28.174Z,10.90
2023-02-27T18:43:56.219Z,12.00
2023-02-27T18:46:24.455Z,25.80
2023-02-27T18:48:52.647Z,29.30
2023-02-27T18:51:20.787Z,52.30
2023-02-27T18:53:49.603Z,36.90
2023-02-27T18:56:19.770Z,40.10
2023-02-27T18:58:48.035Z,52.70
2023-02-27T19:01:27.133Z,56.20
2023-02-27T19:04:00.532Z,37.60
2023-02-27T19:06:31.351Z,32.60
2023-02-27T19:08:59.307Z,38.70
2023-02-27T19:11:35.847Z,30.30
2023-02-27T19:14:05.451Z,23.10
2023-02-27T19:16:33.841Z,28.70
2023-02-27T19:19:02.391Z,16.80
2023-02-27T19:21:30.688Z,14.40
2023-02-27T19:23:58.734Z,13.30
2023-02-27T19:26:27.259Z,17.30
2023-02-27T19:28:55.866Z,14.70
2023-02-27T19:31:24.106Z,13.30
2023-02-27T19:33:52.248Z,11.50
2023-02-27T19:36:21.746Z,13.00
2023-02-27T19:38:49.980Z,18.40
2023-02-27T19:41:18.409Z,23.50
2023-02-27T19:43:46.756Z,12.60
2023-02-27T19:46:20.248Z,18.70
2023-02-27T19:48:48.484Z,11.60
2023-02-27T19:51:16.776Z,15.00
2023-02-27T19:53:48.432Z,23.10
2023-02-27T19:56:19.065Z,23.70
2023-02-27T19:58:48.211Z,12.00
2023-02-27T20:01:31.190Z,14.50
2023-02-27T20:03:59.970Z,12.90
2023-02-27T20:06:29.941Z,15.70
2023-02-27T20:08:58.718Z,11.00
2023-02-27T20:11:32.006Z,24.30
2023-02-27T20:14:00.192Z,42.60
2023-02-27T20:16:30.657Z,38.00
2023-02-27T20:18:59.323Z,41.70
2023-02-27T20:21:28.800Z,36.60
2023-02-27T20:23:59.709Z,35.40
2023-02-27T20:26:36.182Z,37.40
2023-02-27T20:29:10.728Z,19.30
2023-02-27T20:31:39.234Z,19.40
2023-02-27T20:34:11.076Z,26.70
2023-02-27T20:36:39.663Z,20.20
2023-02-27T20:39:10.215Z,20.00
2023-02-27T20:41:40.345Z,16.90
2023-02-27T20:44:08.722Z,12.30
2023-02-27T20:46:38.054Z,19.20
2023-02-27T20:49:07.137Z,16.50
2023-02-27T20:51:36.627Z,17.60
2023-02-27T20:54:07.440Z,19.10
2023-02-27T20:56:41.350Z,22.70
2023-02-27T20:59:13.117Z,19.20
2023-02-27T21:01:42.209Z,24.50
2023-02-27T21:04:10.496Z,21.90
2023-02-27T21:06:40.432Z,23.80
2023-02-27T21:09:08.416Z,27.50
2023-02-27T21:11:36.745Z,26.70
2023-02-27T21:14:06.674Z,24.90
2023-02-27T21:16:35.334Z,34.40
2023-02-27T21:19:03.779Z,43.90
2023-02-27T21:21:32.781Z,51.50
2023-02-27T21:24:01.078Z,36.50
2023-02-27T21:26:33.945Z,31.60
2023-02-27T21:29:06.322Z,25.10
2023-02-27T21:31:34.693Z,24.70
2023-02-27T21:34:05.933Z,28.50
2023-02-27T21:36:36.195Z,21.10
2023-02-27T21:39:07.977Z,41.20
2023-02-27T21:41:38.994Z,33.20
2023-02-27T21:44:08.668Z,39.90
2023-02-27T21:46:36.860Z,42.00
2023-02-27T21:49:05.054Z,34.50
2023-02-27T21:51:40.477Z,33.40
2023-02-27T21:54:11.066Z,27.10
2023-02-27T21:56:40.130Z,33.90
2023-02-27T21:59:09.336Z,28.30
2023-02-27T22:01:38.123Z,34.80
2023-02-27T22:04:06.598Z,38.40
2023-02-27T22:06:34.874Z,33.90
2023-02-27T22:09:05.112Z,32.80
2023-02-27T22:11:34.860Z,30.50
2023-02-27T22:14:05.978Z,25.40
2023-02-27T22:16:35.082Z,22.60
2023-02-27T22:19:19.975Z,16.80
2023-02-27T22:21:50.127Z,20.30
2023-02-27T22:24:19.241Z,16.30
2023-02-27T22:26:49.730Z,19.10
2023-02-27T22:29:17.795Z,20.90
2023-02-27T22:31:46.054Z,16.40
2023-02-27T22:34:18.237Z,30.70
2023-02-27T22:36:48.798Z,35.00
2023-02-27T22:39:17.110Z,40.60
2023-02-27T22:41:46.347Z,36.40
2023-02-27T22:44:14.934Z,50.60
2023-02-27T22:46:47.301Z,50.20
2023-02-27T22:49:23.143Z,50.50
2023-02-27T22:51:52.437Z,49.00
2023-02-27T22:54:21.708Z,51.00
2023-02-27T22:56:51.355Z,54.30
2023-02-27T22:59:19.974Z,28.50
2023-02-27T23:01:50.075Z,46.80
2023-02-27T23:04:18.198Z,35.80
2023-02-27T23:06:46.253Z,20.80
2023-02-27T23:09:17.987Z,17.30
2023-02-27T23:11:46.435Z,26.30
2023-02-27T23:14:14.574Z,33.30
2023-02-27T23:16:45.985Z,33.80
2023-02-27T23:19:17.790Z,29.20
2023-02-27T23:21:45.801Z,29.90
2023-02-27T23:24:15.571Z,27.70
2023-02-27T23:26:46.944Z,27.00
2023-02-27T23:29:15.160Z,22.30
2023-02-27T23:31:43.349Z,16.00
2023-02-27T23:34:11.513Z,28.70
2023-02-27T23:36:39.656Z,19.70
2023-02-27T23:39:07.964Z,13.40
2023-02-27T23:41:36.290Z,19.40
2023-02-27T23:44:23.046Z,22.90
2023-02-27T23:46:51.057Z,21.90
2023-02-27T23:49:19.160Z,16.70
2023-02-27T23:51:47.128Z,19.80
2023-02-27T23:54:15.595Z,17.30
2023-02-27T23:56:43.618Z,16.70
2023-02-27T23:59:11.681Z,18.80
